Glenpool, Oklahoma
Current Conditions -  °F | °C
As of 4:53 PM on Friday 28 Nov 2014 (Local Time) from KRVS Reporting Station
Clear Clear  
Wind Chill: 18°   Ceiling: Unl
Heat Index: 18°   Visibility: 10mi
Dew Point:   Wind: 13mph
Humidity: 41%   Direction: 190°S
Pressure: 29.89"   Gusts: NA
Location:  35.95°N, 96.01°W
Report Text: KRVS 282253Z 19011KT 10SM CLR 18/04 A2989 RMK AO2 SLP126 T01780044
Loading
Personal Weather Stations






























Interactive Weather Map New forecast layout! Learn more

10-Day Weather Forecast

Advertisements
Track Severe Weather on mobile